Time;durP1;ratioP1;P1;durP2;ratioP2;P2;SDS_P1;SDS_P2;PMS_P1;PMS_P2;Temp;Humidity;BMP_temperature;BMP_pressure;BME280_temperature;BME280_humidity;BME280_pressure;Samples;Min_cycle;Max_cycle;Signal;HPM_P1;HPM_P2
2024/01/22 00:01:13;;;;;;;6.30;5.00;;;3.80;99.90;;;;;;5046309;28;20199;-54
2024/01/22 00:03:39;;;;;;;7.00;4.33;;;3.80;99.90;;;;;;5048186;28;20262;-53
2024/01/22 00:06:05;;;;;;;9.07;5.50;;;3.70;99.90;;;;;;5043072;28;20232;-60
2024/01/22 00:08:31;;;;;;;6.17;4.50;;;3.70;99.90;;;;;;5051078;28;20239;-54
2024/01/22 00:10:56;;;;;;;6.97;5.17;;;3.70;99.90;;;;;;5048462;28;20197;-53
2024/01/22 00:13:22;;;;;;;7.90;5.03;;;3.70;99.90;;;;;;5037559;28;20702;-53
2024/01/22 00:15:47;;;;;;;6.37;4.80;;;3.70;99.90;;;;;;5047423;28;20202;-52
2024/01/22 00:18:13;;;;;;;6.20;4.87;;;3.70;99.90;;;;;;5050489;28;20223;-53
2024/01/22 00:20:39;;;;;;;5.73;4.70;;;3.70;99.90;;;;;;5045480;28;20221;-56
2024/01/22 00:23:06;;;;;;;8.07;5.20;;;3.70;99.90;;;;;;5054294;28;20243;-54
2024/01/22 00:25:32;;;;;;;8.80;5.30;;;3.70;99.90;;;;;;5049479;28;20200;-53
2024/01/22 00:27:57;;;;;;;7.50;5.07;;;3.70;99.90;;;;;;5045880;28;20897;-53
2024/01/22 00:30:22;;;;;;;5.53;4.90;;;3.80;99.90;;;;;;5047601;28;20568;-53
2024/01/22 00:32:50;;;;;;;5.40;4.73;;;3.80;99.90;;;;;;5048562;28;20206;-53
2024/01/22 00:35:16;;;;;;;5.43;4.70;;;3.70;99.90;;;;;;5054161;28;20198;-53
2024/01/22 00:37:43;;;;;;;4.97;4.27;;;3.70;99.90;;;;;;5050675;28;20275;-53
2024/01/22 00:40:09;;;;;;;9.20;5.67;;;3.70;99.90;;;;;;5047705;28;20206;-53
2024/01/22 00:42:35;;;;;;;6.07;4.93;;;3.60;99.90;;;;;;5049119;28;20224;-53
2024/01/22 00:45:00;;;;;;;6.10;4.80;;;3.60;99.90;;;;;;5040409;28;20279;-52
2024/01/22 00:47:26;;;;;;;5.70;5.10;;;3.70;99.90;;;;;;5047914;28;20226;-52
2024/01/22 00:49:52;;;;;;;5.20;4.67;;;3.70;99.90;;;;;;5053573;28;20288;-52
2024/01/22 00:52:18;;;;;;;5.33;4.83;;;3.60;99.90;;;;;;5049047;28;20292;-51
2024/01/22 00:54:43;;;;;;;5.03;4.50;;;3.70;99.90;;;;;;5046754;28;20224;-53
2024/01/22 00:57:09;;;;;;;8.77;5.00;;;3.70;99.90;;;;;;5045463;28;20692;-53
2024/01/22 00:59:36;;;;;;;6.73;4.90;;;3.70;99.90;;;;;;5051969;28;23185;-53
2024/01/22 01:02:02;;;;;;;4.00;3.60;;;3.80;99.90;;;;;;5047099;28;20205;-53
2024/01/22 01:04:28;;;;;;;6.33;5.07;;;3.80;99.90;;;;;;5047754;28;20566;-52
2024/01/22 01:06:54;;;;;;;5.90;4.60;;;3.80;99.90;;;;;;5043272;28;20201;-52
2024/01/22 01:09:20;;;;;;;9.73;4.40;;;3.80;99.90;;;;;;5045782;28;20233;-52
2024/01/22 01:11:45;;;;;;;5.80;4.37;;;3.80;99.90;;;;;;5053891;28;20272;-51
2024/01/22 01:14:11;;;;;;;5.93;4.77;;;3.90;99.90;;;;;;5047040;28;20212;-52
2024/01/22 01:16:36;;;;;;;4.90;4.40;;;3.90;99.90;;;;;;5048884;28;20202;-51
2024/01/22 01:19:02;;;;;;;5.40;4.67;;;3.90;99.90;;;;;;5050396;28;20194;-52
2024/01/22 01:21:27;;;;;;;9.37;4.90;;;3.90;99.90;;;;;;5053127;28;20204;-52
2024/01/22 01:23:52;;;;;;;6.43;4.53;;;3.90;99.90;;;;;;5053164;28;20194;-53
2024/01/22 01:26:18;;;;;;;4.57;4.13;;;3.80;99.90;;;;;;5049647;28;20579;-51
2024/01/22 01:28:44;;;;;;;4.70;4.20;;;3.90;99.90;;;;;;5057636;28;20220;-51
2024/01/22 01:31:09;;;;;;;5.63;4.67;;;4.00;99.90;;;;;;5058313;28;20198;-54
2024/01/22 01:33:35;;;;;;;4.93;4.43;;;3.90;99.90;;;;;;5052897;28;20514;-57
2024/01/22 01:36:01;;;;;;;4.97;3.97;;;3.90;99.90;;;;;;5059839;28;20243;-53
2024/01/22 01:38:26;;;;;;;7.53;4.03;;;4.00;99.90;;;;;;5054302;28;20567;-50
2024/01/22 01:40:52;;;;;;;8.10;4.17;;;4.00;99.90;;;;;;5058276;28;20208;-52
2024/01/22 01:43:18;;;;;;;6.33;4.50;;;4.00;99.90;;;;;;5064938;28;20738;-52
2024/01/22 01:45:44;;;;;;;5.03;3.70;;;4.00;99.90;;;;;;5063909;28;20419;-52
2024/01/22 01:48:10;;;;;;;5.57;3.47;;;4.00;99.90;;;;;;5057315;28;21042;-51
2024/01/22 01:50:35;;;;;;;7.57;4.00;;;4.00;99.90;;;;;;5063528;28;20200;-52
2024/01/22 01:53:03;;;;;;;5.10;4.00;;;4.00;99.90;;;;;;5051841;28;20866;-52
2024/01/22 01:55:29;;;;;;;7.83;4.57;;;4.00;99.90;;;;;;5065837;28;20224;-51
2024/01/22 01:57:55;;;;;;;7.33;4.10;;;4.10;99.90;;;;;;5057600;28;20230;-52
2024/01/22 02:00:22;;;;;;;4.63;3.30;;;4.00;99.90;;;;;;5061189;28;20212;-52
2024/01/22 02:02:47;;;;;;;4.97;4.47;;;4.00;99.90;;;;;;5057743;28;20293;-52
2024/01/22 02:05:16;;;;;;;10.73;4.80;;;4.00;99.90;;;;;;5061965;28;20789;-52
2024/01/22 02:07:42;;;;;;;5.07;3.30;;;4.00;99.90;;;;;;5058941;28;20633;-52
2024/01/22 02:10:12;;;;;;;4.23;3.83;;;4.00;99.90;;;;;;5057343;28;20205;-52
2024/01/22 02:12:37;;;;;;;6.60;4.00;;;4.00;99.90;;;;;;5056686;28;20201;-51
2024/01/22 02:15:03;;;;;;;4.53;4.00;;;4.10;99.90;;;;;;5047925;28;20195;-52
2024/01/22 02:17:28;;;;;;;6.17;4.20;;;4.00;99.90;;;;;;5047904;28;20205;-52
2024/01/22 02:19:54;;;;;;;5.47;3.47;;;4.10;99.90;;;;;;5054709;28;20202;-52
2024/01/22 02:22:19;;;;;;;6.00;4.10;;;4.10;99.90;;;;;;5060284;28;20746;-52
2024/01/22 02:24:45;;;;;;;5.67;3.77;;;4.20;99.90;;;;;;5058124;28;20242;-51
2024/01/22 02:27:10;;;;;;;3.87;3.40;;;4.20;99.90;;;;;;5061917;28;20224;-52
2024/01/22 02:29:35;;;;;;;4.90;3.27;;;4.30;99.90;;;;;;5061664;28;20197;-52
2024/01/22 02:32:01;;;;;;;4.07;3.67;;;4.30;99.90;;;;;;5056199;28;20201;-52
2024/01/22 02:34:26;;;;;;;4.87;3.57;;;4.30;99.90;;;;;;5055207;28;20194;-53
2024/01/22 02:36:52;;;;;;;5.17;4.10;;;4.30;99.90;;;;;;5052310;28;20212;-51
2024/01/22 02:39:17;;;;;;;5.40;3.77;;;4.40;99.90;;;;;;5048232;28;20228;-52
2024/01/22 02:41:43;;;;;;;4.63;3.90;;;4.40;99.90;;;;;;5054060;28;20221;-51
2024/01/22 02:44:08;;;;;;;4.17;3.77;;;4.40;99.90;;;;;;5061865;28;20198;-52
2024/01/22 02:46:34;;;;;;;4.73;3.70;;;4.50;99.90;;;;;;5059651;28;20248;-51
2024/01/22 02:49:00;;;;;;;9.10;3.87;;;4.50;99.90;;;;;;5061942;28;20245;-50
2024/01/22 02:51:25;;;;;;;5.47;3.60;;;4.50;99.90;;;;;;5054452;28;20208;-51
2024/01/22 02:53:52;;;;;;;3.70;3.40;;;4.50;99.90;;;;;;5061518;28;20209;-52
2024/01/22 02:56:19;;;;;;;6.00;3.93;;;4.60;99.90;;;;;;5058215;28;20251;-52
2024/01/22 02:58:44;;;;;;;6.23;3.63;;;4.60;99.90;;;;;;5057599;28;20252;-52
2024/01/22 03:01:10;;;;;;;5.50;4.37;;;4.60;99.90;;;;;;5056177;28;20205;-52
2024/01/22 03:03:35;;;;;;;8.70;3.53;;;4.60;99.90;;;;;;5046391;28;20675;-50
2024/01/22 03:06:01;;;;;;;5.23;3.50;;;4.70;99.90;;;;;;5056318;28;20198;-51
2024/01/22 03:08:26;;;;;;;3.47;3.17;;;4.70;99.90;;;;;;5053554;28;20206;-51
2024/01/22 03:10:52;;;;;;;5.83;3.37;;;4.70;99.90;;;;;;5048659;28;20213;-51
2024/01/22 03:13:17;;;;;;;4.37;3.40;;;4.70;99.90;;;;;;5055480;28;20212;-51
2024/01/22 03:15:42;;;;;;;5.13;3.93;;;4.70;99.90;;;;;;5048791;28;21106;-51
2024/01/22 03:18:08;;;;;;;5.67;3.93;;;4.80;99.90;;;;;;5041691;28;20213;-52
2024/01/22 03:20:34;;;;;;;6.67;3.40;;;4.80;99.90;;;;;;5053580;28;20255;-51
2024/01/22 03:22:59;;;;;;;3.50;3.30;;;4.80;99.90;;;;;;5055575;28;20938;-51
2024/01/22 03:25:25;;;;;;;5.27;3.80;;;4.80;99.90;;;;;;5050943;28;20201;-51
2024/01/22 03:27:50;;;;;;;3.50;3.27;;;4.80;99.90;;;;;;5057670;28;20222;-52
2024/01/22 03:30:16;;;;;;;4.53;3.53;;;4.90;99.90;;;;;;5055850;28;20198;-52
2024/01/22 03:32:41;;;;;;;4.53;3.67;;;4.90;99.90;;;;;;5064394;28;20205;-51
2024/01/22 03:35:07;;;;;;;6.23;3.80;;;4.90;99.90;;;;;;5058560;28;20239;-51
2024/01/22 03:37:32;;;;;;;4.00;3.40;;;4.90;99.90;;;;;;5047887;28;20296;-60
2024/01/22 03:39:58;;;;;;;4.20;3.50;;;4.90;99.90;;;;;;5048401;28;20198;-52
2024/01/22 03:42:23;;;;;;;3.97;3.40;;;4.90;99.90;;;;;;5050469;28;20206;-51
2024/01/22 03:44:49;;;;;;;3.70;3.33;;;4.90;99.90;;;;;;5056194;28;20236;-51
2024/01/22 03:47:14;;;;;;;4.23;3.17;;;4.90;99.90;;;;;;5052594;28;20733;-51
2024/01/22 03:49:40;;;;;;;3.87;3.47;;;4.90;99.90;;;;;;5044601;28;20563;-52
2024/01/22 03:52:05;;;;;;;3.23;2.90;;;4.90;99.90;;;;;;5058037;28;20622;-52
2024/01/22 03:54:31;;;;;;;4.23;3.50;;;4.90;99.90;;;;;;5047083;28;20222;-51
2024/01/22 03:56:56;;;;;;;5.30;3.07;;;5.00;99.90;;;;;;5057039;28;20220;-51
2024/01/22 03:59:22;;;;;;;4.87;3.53;;;5.00;99.90;;;;;;5053763;28;20238;-51
2024/01/22 04:01:48;;;;;;;5.47;3.67;;;5.00;99.90;;;;;;5055533;28;20199;-51
2024/01/22 04:04:14;;;;;;;4.60;3.63;;;5.10;99.90;;;;;;5059317;28;20298;-51
2024/01/22 04:06:39;;;;;;;4.33;3.63;;;5.10;99.90;;;;;;5052128;28;20208;-52
2024/01/22 04:09:04;;;;;;;6.07;4.23;;;5.10;99.90;;;;;;5050193;28;20222;-52
2024/01/22 04:11:30;;;;;;;5.40;3.40;;;5.00;99.90;;;;;;5052273;28;20213;-52
2024/01/22 04:13:55;;;;;;;5.83;3.73;;;5.00;99.90;;;;;;5053564;28;20206;-52
2024/01/22 04:16:21;;;;;;;4.97;4.43;;;5.00;99.90;;;;;;5050967;28;20659;-51
2024/01/22 04:18:46;;;;;;;3.60;3.30;;;5.10;99.90;;;;;;5048317;28;20194;-52
2024/01/22 04:21:12;;;;;;;2.90;2.70;;;5.10;99.90;;;;;;5052501;28;20225;-52
2024/01/22 04:23:38;;;;;;;5.27;3.43;;;5.20;99.90;;;;;;5055495;28;20270;-51
2024/01/22 04:26:04;;;;;;;6.17;3.50;;;5.20;99.90;;;;;;5055508;28;20201;-51
2024/01/22 04:28:30;;;;;;;4.00;3.30;;;5.20;99.90;;;;;;5050792;28;20271;-52
2024/01/22 04:30:55;;;;;;;3.87;3.20;;;5.20;99.90;;;;;;5052625;28;20195;-52
2024/01/22 04:33:21;;;;;;;4.63;3.57;;;5.20;99.90;;;;;;5053935;28;20298;-51
2024/01/22 04:35:49;;;;;;;3.90;3.40;;;5.20;99.90;;;;;;5047126;28;20572;-52
2024/01/22 04:38:15;;;;;;;3.77;2.93;;;5.10;99.90;;;;;;5055723;28;20704;-52
2024/01/22 04:40:41;;;;;;;3.40;2.90;;;5.30;99.90;;;;;;5058170;28;20221;-52
2024/01/22 04:43:06;;;;;;;5.73;3.53;;;5.30;99.90;;;;;;5061668;28;20178;-52
2024/01/22 04:45:32;;;;;;;4.97;3.63;;;5.40;99.90;;;;;;5061030;28;20551;-53
2024/01/22 04:47:57;;;;;;;4.03;3.10;;;5.40;99.90;;;;;;5047679;28;20214;-52
2024/01/22 04:50:23;;;;;;;4.83;3.20;;;5.50;99.90;;;;;;5050189;28;20910;-53
2024/01/22 04:52:48;;;;;;;5.00;3.23;;;5.50;99.90;;;;;;5058234;28;20210;-53
2024/01/22 04:55:14;;;;;;;3.70;2.70;;;5.50;99.90;;;;;;5047475;28;20485;-53
2024/01/22 04:57:39;;;;;;;5.10;3.17;;;5.50;99.90;;;;;;5057481;28;20209;-52
2024/01/22 05:00:05;;;;;;;2.93;2.70;;;5.60;99.90;;;;;;5065647;28;20202;-52
2024/01/22 05:02:32;;;;;;;5.80;3.07;;;5.50;99.90;;;;;;5062216;28;20197;-51
2024/01/22 05:04:59;;;;;;;4.10;2.60;;;5.50;99.90;;;;;;5055604;28;20194;-51
2024/01/22 05:07:25;;;;;;;3.23;2.50;;;5.50;99.90;;;;;;5060399;28;20763;-51
2024/01/22 05:09:58;;;;;;;2.53;2.33;;;5.40;99.90;;;;;;5055967;28;20229;-52
2024/01/22 05:12:24;;;;;;;6.23;3.67;;;5.60;99.90;;;;;;5058482;28;20206;-51
2024/01/22 05:14:49;;;;;;;2.73;2.20;;;5.60;99.90;;;;;;5072903;28;20711;-52
2024/01/22 05:17:15;;;;;;;5.47;3.40;;;5.60;99.90;;;;;;5058634;28;20207;-51
2024/01/22 05:19:40;;;;;;;4.70;2.93;;;5.70;99.90;;;;;;5067009;28;20277;-52
2024/01/22 05:22:06;;;;;;;5.67;2.70;;;5.70;99.90;;;;;;5063377;28;20202;-51
2024/01/22 05:24:31;;;;;;;3.50;2.43;;;5.80;99.90;;;;;;5052434;28;20774;-51
2024/01/22 05:26:57;;;;;;;3.93;3.00;;;5.90;99.90;;;;;;5058259;28;20810;-51
2024/01/22 05:29:22;;;;;;;3.40;2.20;;;5.90;99.90;;;;;;5057679;28;20229;-50
2024/01/22 05:31:47;;;;;;;4.07;1.87;;;5.80;99.90;;;;;;5051034;28;20482;-51
2024/01/22 05:34:13;;;;;;;5.70;3.13;;;5.80;99.90;;;;;;5058073;28;20213;-51
2024/01/22 05:36:39;;;;;;;5.43;2.63;;;5.80;99.90;;;;;;5065890;28;20252;-51
2024/01/22 05:39:05;;;;;;;6.37;2.33;;;5.90;99.90;;;;;;5055653;28;20202;-52
2024/01/22 05:41:31;;;;;;;2.50;2.30;;;5.90;99.90;;;;;;5058180;28;20609;-52
2024/01/22 05:43:56;;;;;;;2.63;2.17;;;5.90;99.90;;;;;;5066573;28;20198;-51
2024/01/22 05:46:22;;;;;;;2.20;1.73;;;6.00;99.90;;;;;;5067637;28;20240;-52
2024/01/22 05:48:47;;;;;;;1.70;1.40;;;6.10;99.90;;;;;;5073515;28;20213;-51
2024/01/22 05:51:13;;;;;;;2.80;1.60;;;6.10;99.90;;;;;;5059037;28;20750;-62
2024/01/22 05:53:40;;;;;;;2.60;2.33;;;6.20;99.90;;;;;;5052399;28;20687;-59
2024/01/22 05:56:06;;;;;;;2.50;1.80;;;6.20;99.90;;;;;;5044968;28;20227;-53
2024/01/22 05:58:31;;;;;;;4.13;1.50;;;6.30;99.90;;;;;;5048915;28;20186;-52
2024/01/22 06:00:57;;;;;;;3.50;1.70;;;6.30;99.90;;;;;;5062784;28;20240;-52
2024/01/22 06:03:22;;;;;;;2.67;2.30;;;6.40;99.90;;;;;;5053969;28;20226;-52
2024/01/22 06:05:48;;;;;;;2.47;1.87;;;6.40;99.90;;;;;;5051653;28;20720;-53
2024/01/22 06:08:13;;;;;;;2.00;1.60;;;6.50;99.90;;;;;;5055248;28;20222;-52
2024/01/22 06:10:39;;;;;;;2.03;1.83;;;6.50;99.90;;;;;;5064712;28;20233;-53
2024/01/22 06:13:04;;;;;;;3.00;1.80;;;6.50;99.90;;;;;;5061278;28;20201;-51
2024/01/22 06:15:29;;;;;;;2.80;1.57;;;6.60;99.90;;;;;;5057141;28;20294;-51
2024/01/22 06:17:55;;;;;;;1.60;1.40;;;6.70;99.90;;;;;;5061554;28;20179;-58
2024/01/22 06:20:21;;;;;;;3.27;1.70;;;6.70;99.90;;;;;;5058626;28;20328;-52
2024/01/22 06:22:46;;;;;;;6.40;2.30;;;6.80;99.90;;;;;;5056469;28;20693;-51
2024/01/22 06:25:12;;;;;;;2.70;1.90;;;6.90;99.90;;;;;;5070891;28;20193;-52
2024/01/22 06:27:37;;;;;;;4.10;1.70;;;7.00;99.90;;;;;;5053287;28;20798;-52
2024/01/22 06:30:04;;;;;;;6.07;2.17;;;7.00;99.90;;;;;;5068083;28;20189;-52
2024/01/22 06:32:29;;;;;;;1.70;1.60;;;7.00;99.90;;;;;;5061775;28;20201;-52
2024/01/22 06:34:55;;;;;;;2.53;1.33;;;7.10;99.90;;;;;;5067600;28;20206;-51
2024/01/22 06:37:23;;;;;;;2.53;1.77;;;7.10;99.90;;;;;;5077486;28;20282;-52
2024/01/22 06:39:49;;;;;;;1.90;1.53;;;7.20;99.90;;;;;;5088601;22;20233;-51
2024/01/22 06:42:15;;;;;;;3.73;1.40;;;7.30;99.90;;;;;;5062314;28;20185;-51
2024/01/22 06:44:40;;;;;;;2.40;1.80;;;7.30;99.90;;;;;;5061706;28;20759;-52
2024/01/22 06:47:05;;;;;;;1.53;1.40;;;7.40;99.90;;;;;;5045862;28;20290;-52
2024/01/22 06:49:31;;;;;;;6.03;1.83;;;7.40;99.90;;;;;;5060195;28;20272;-53
2024/01/22 06:51:57;;;;;;;1.43;1.33;;;7.50;99.90;;;;;;5058005;28;20234;-53
2024/01/22 06:54:22;;;;;;;4.53;1.60;;;7.50;99.90;;;;;;5080598;28;20285;-52
2024/01/22 06:56:48;;;;;;;2.67;1.67;;;7.50;99.90;;;;;;5058156;28;20212;-53
2024/01/22 06:59:14;;;;;;;3.60;1.47;;;7.50;99.90;;;;;;5065873;28;20832;-51
2024/01/22 07:01:39;;;;;;;1.30;1.20;;;7.60;99.90;;;;;;5075150;28;20202;-52
2024/01/22 07:04:05;;;;;;;1.50;1.03;;;7.60;99.90;;;;;;5064395;28;20197;-53
2024/01/22 07:06:30;;;;;;;1.80;1.70;;;7.60;99.90;;;;;;5081817;28;20266;-53
2024/01/22 07:08:55;;;;;;;3.07;1.57;;;7.60;99.90;;;;;;5083346;28;20224;-52
2024/01/22 07:11:21;;;;;;;1.70;1.40;;;7.60;99.90;;;;;;5082165;28;20688;-52
2024/01/22 07:13:47;;;;;;;1.83;1.33;;;7.50;99.90;;;;;;5084964;28;20402;-52
2024/01/22 07:16:13;;;;;;;2.77;1.37;;;7.50;99.90;;;;;;5073676;28;20388;-52
2024/01/22 07:18:39;;;;;;;2.30;1.40;;;7.50;99.90;;;;;;5085275;28;20546;-51
2024/01/22 07:21:05;;;;;;;4.47;1.50;;;7.50;99.90;;;;;;5088101;28;20190;-53
2024/01/22 07:23:30;;;;;;;2.20;1.43;;;7.50;99.90;;;;;;5085164;28;20592;-53
2024/01/22 07:25:56;;;;;;;2.40;1.63;;;7.50;99.90;;;;;;5067549;28;21162;-52
2024/01/22 07:28:21;;;;;;;2.27;1.47;;;7.50;99.90;;;;;;5071502;28;20221;-52
2024/01/22 07:30:47;;;;;;;2.43;1.67;;;7.50;99.90;;;;;;5081539;28;20224;-52
2024/01/22 07:33:12;;;;;;;3.23;1.63;;;7.50;99.90;;;;;;5070284;28;20652;-52
2024/01/22 07:35:38;;;;;;;2.10;1.20;;;7.50;99.90;;;;;;5071475;28;20209;-52
2024/01/22 07:38:05;;;;;;;1.33;1.23;;;7.50;99.90;;;;;;5082792;28;20703;-52
2024/01/22 07:40:31;;;;;;;3.00;1.13;;;7.40;99.90;;;;;;5076306;28;20699;-52
2024/01/22 07:42:56;;;;;;;0.80;0.80;;;7.40;99.90;;;;;;5081721;28;20204;-52
2024/01/22 07:45:22;;;;;;;2.43;1.30;;;7.40;99.90;;;;;;5064372;28;20198;-52
2024/01/22 07:47:47;;;;;;;1.00;1.00;;;7.50;99.90;;;;;;5080201;28;20712;-53
2024/01/22 07:50:14;;;;;;;1.47;1.37;;;7.50;99.90;;;;;;5080702;28;20213;-52
2024/01/22 07:52:41;;;;;;;0.80;0.80;;;7.50;99.90;;;;;;5057046;28;20264;-56
2024/01/22 07:55:07;;;;;;;3.07;1.37;;;7.50;99.90;;;;;;5082655;28;20190;-52
2024/01/22 07:57:33;;;;;;;3.13;1.80;;;7.50;99.90;;;;;;5082892;28;20203;-53
2024/01/22 07:59:59;;;;;;;2.00;1.03;;;7.50;99.90;;;;;;5083211;28;20213;-52
2024/01/22 08:02:24;;;;;;;2.13;0.90;;;7.50;99.90;;;;;;5082758;28;20693;-52
2024/01/22 08:04:50;;;;;;;1.17;0.83;;;7.40;99.90;;;;;;5082768;28;20281;-52
2024/01/22 08:07:17;;;;;;;2.60;1.70;;;7.20;99.90;;;;;;5082864;28;20211;-52
2024/01/22 08:09:42;;;;;;;2.73;1.43;;;6.90;99.90;;;;;;5082668;28;20204;-52
2024/01/22 08:12:08;;;;;;;5.00;1.37;;;6.80;99.90;;;;;;5064998;28;20193;-52
2024/01/22 08:14:34;;;;;;;2.10;1.90;;;6.60;99.90;;;;;;5082187;28;20189;-52
2024/01/22 08:17:01;;;;;;;1.50;1.40;;;6.50;99.90;;;;;;5080761;28;20197;-52
2024/01/22 08:19:27;;;;;;;1.50;1.40;;;6.50;99.90;;;;;;5082521;28;20190;-52
2024/01/22 08:21:53;;;;;;;2.73;1.23;;;6.50;99.90;;;;;;5078523;28;20780;-52
2024/01/22 08:24:19;;;;;;;2.83;1.27;;;6.40;99.90;;;;;;5082320;28;20201;-53
2024/01/22 08:26:45;;;;;;;1.67;1.57;;;6.40;99.90;;;;;;5077630;28;20498;-52
2024/01/22 08:29:11;;;;;;;2.37;1.50;;;6.30;99.90;;;;;;5082031;28;20722;-51
2024/01/22 08:31:37;;;;;;;1.20;1.10;;;6.20;99.90;;;;;;5061707;28;20563;-52
2024/01/22 08:34:03;;;;;;;2.37;1.80;;;6.10;99.90;;;;;;5071200;28;20304;-51
2024/01/22 08:36:28;;;;;;;2.70;1.60;;;6.10;99.90;;;;;;5077064;28;20712;-51
2024/01/22 08:38:54;;;;;;;1.60;1.50;;;6.00;99.90;;;;;;5076316;28;20205;-52
2024/01/22 08:41:22;;;;;;;1.60;1.50;;;6.00;99.90;;;;;;5069512;28;20222;-51
2024/01/22 08:43:48;;;;;;;2.73;2.07;;;6.00;99.90;;;;;;5063495;28;20678;-52
2024/01/22 08:46:14;;;;;;;2.17;1.97;;;6.00;99.90;;;;;;5061775;28;20174;-53
2024/01/22 08:48:39;;;;;;;3.67;1.80;;;6.00;99.90;;;;;;5067014;28;20589;-52
2024/01/22 08:51:05;;;;;;;2.40;2.07;;;6.00;99.90;;;;;;5044139;28;20198;-52
2024/01/22 08:53:30;;;;;;;4.70;2.20;;;5.90;99.90;;;;;;5062673;28;20217;-53
2024/01/22 08:55:56;;;;;;;2.10;1.93;;;5.90;99.90;;;;;;5061562;28;20218;-52
2024/01/22 08:58:22;;;;;;;2.80;1.90;;;5.90;99.90;;;;;;5067839;28;20204;-52
2024/01/22 09:00:47;;;;;;;3.30;1.47;;;5.90;99.90;;;;;;5061378;28;20174;-52
2024/01/22 09:03:13;;;;;;;2.07;1.50;;;6.00;99.90;;;;;;5046634;28;20240;-52
2024/01/22 09:05:38;;;;;;;3.60;1.90;;;6.00;99.90;;;;;;5061346;28;20186;-51
2024/01/22 09:08:04;;;;;;;8.40;2.40;;;6.00;99.90;;;;;;5064971;28;20649;-52
2024/01/22 09:10:31;;;;;;;3.90;1.87;;;6.00;99.90;;;;;;5049967;28;20205;-53
2024/01/22 09:12:56;;;;;;;4.90;2.10;;;6.00;99.90;;;;;;5061764;28;20190;-52
2024/01/22 09:15:22;;;;;;;9.33;1.80;;;6.00;99.90;;;;;;5063976;28;20954;-51
2024/01/22 09:17:47;;;;;;;3.20;1.87;;;6.00;99.90;;;;;;5066579;28;20281;-52
2024/01/22 09:20:14;;;;;;;2.37;1.90;;;6.10;99.90;;;;;;5061921;28;20688;-51
2024/01/22 09:22:40;;;;;;;3.40;1.90;;;6.10;99.90;;;;;;5069938;28;20190;-52
2024/01/22 09:25:05;;;;;;;4.23;1.83;;;6.10;99.90;;;;;;5059351;28;20199;-52
2024/01/22 09:27:31;;;;;;;3.27;2.10;;;6.10;99.90;;;;;;5069160;28;20221;-52
2024/01/22 09:29:58;;;;;;;2.20;1.70;;;6.20;99.90;;;;;;5053767;28;20215;-52
2024/01/22 09:32:25;;;;;;;3.83;2.00;;;6.30;99.90;;;;;;5066845;28;20654;-52
2024/01/22 09:34:51;;;;;;;1.83;1.70;;;6.30;99.90;;;;;;5065661;28;20190;-52
2024/01/22 09:37:16;;;;;;;3.67;1.77;;;6.40;99.90;;;;;;5065875;28;20195;-52
2024/01/22 09:39:44;;;;;;;1.37;1.23;;;6.50;99.90;;;;;;5062787;28;20221;-52
2024/01/22 09:42:11;;;;;;;4.53;2.00;;;6.50;99.90;;;;;;5060029;28;20533;-53
2024/01/22 09:44:36;;;;;;;2.87;1.67;;;6.60;99.90;;;;;;5057557;28;20190;-55
2024/01/22 09:47:02;;;;;;;3.37;1.57;;;6.70;99.90;;;;;;5063051;28;20205;-54
2024/01/22 09:49:28;;;;;;;3.97;2.10;;;6.70;99.90;;;;;;5066222;28;20825;-54
2024/01/22 09:51:53;;;;;;;2.30;1.80;;;6.80;99.90;;;;;;5045584;28;20201;-52
2024/01/22 09:54:20;;;;;;;3.10;1.67;;;6.80;99.90;;;;;;5046569;28;20730;-51
2024/01/22 09:56:54;;;;;;;1.60;1.50;;;6.90;99.90;;;;;;5061238;28;20189;-51
2024/01/22 09:59:22;;;;;;;2.87;1.50;;;7.00;99.90;;;;;;5063367;28;20736;-52
2024/01/22 10:01:49;;;;;;;1.50;1.40;;;7.10;99.90;;;;;;5057225;28;20336;-52
2024/01/22 10:04:15;;;;;;;1.30;1.20;;;7.10;99.90;;;;;;5065295;28;20206;-51
2024/01/22 10:06:42;;;;;;;1.27;1.17;;;7.20;99.90;;;;;;5063070;28;20680;-51
2024/01/22 10:09:08;;;;;;;3.20;1.30;;;7.30;99.90;;;;;;5059738;28;20588;-52
2024/01/22 10:11:34;;;;;;;2.60;1.00;;;7.40;99.90;;;;;;5069593;28;20681;-53
2024/01/22 10:14:00;;;;;;;1.57;1.30;;;7.50;99.90;;;;;;5070993;28;20194;-62
2024/01/22 10:16:26;;;;;;;3.60;1.60;;;7.60;99.90;;;;;;5077220;28;20190;-55
2024/01/22 10:19:05;;;;;;;1.60;1.50;;;7.70;99.90;;;;;;5056176;28;20202;-57
2024/01/22 10:21:31;;;;;;;1.00;1.00;;;7.80;99.90;;;;;;5045596;28;20193;-54
2024/01/22 10:23:58;;;;;;;1.80;1.70;;;7.90;99.90;;;;;;5073466;28;20194;-55
2024/01/22 10:26:24;;;;;;;2.57;1.23;;;7.90;99.90;;;;;;5076910;28;20614;-59
2024/01/22 10:28:50;;;;;;;1.40;1.30;;;8.00;99.90;;;;;;5067983;28;20304;-53
2024/01/22 10:31:16;;;;;;;3.73;1.20;;;8.00;99.90;;;;;;5058339;28;20181;-53
2024/01/22 10:33:41;;;;;;;1.57;1.47;;;8.10;99.90;;;;;;5042497;28;20194;-54
2024/01/22 10:36:17;;;;;;;1.87;1.67;;;8.10;99.90;;;;;;5027760;28;20660;-53
2024/01/22 10:38:45;;;;;;;3.20;1.53;;;8.20;99.90;;;;;;5043151;28;20206;-53
2024/01/22 10:41:22;;;;;;;3.47;1.40;;;8.20;99.90;;;;;;5068304;28;20498;-59
2024/01/22 10:43:49;;;;;;;2.60;1.23;;;8.30;99.90;;;;;;5081711;28;20206;-53
2024/01/22 10:46:17;;;;;;;1.50;1.27;;;8.40;99.90;;;;;;5066072;28;20220;-53
2024/01/22 10:48:44;;;;;;;4.20;1.20;;;8.50;99.90;;;;;;5063833;28;20627;-53
2024/01/22 10:51:10;;;;;;;1.23;1.20;;;8.50;99.90;;;;;;5066427;28;20267;-62
2024/01/22 10:53:39;;;;;;;2.07;1.07;;;8.60;99.90;;;;;;5075814;28;20662;-53
2024/01/22 10:56:14;;;;;;;0.77;0.77;;;8.60;99.90;;;;;;5076577;28;20198;-61
2024/01/22 10:58:41;;;;;;;1.17;1.00;;;8.70;99.90;;;;;;5081307;28;20208;-62
2024/01/22 11:01:18;;;;;;;3.53;1.50;;;8.70;99.90;;;;;;5074532;28;20200;-59
2024/01/22 11:03:48;;;;;;;1.27;0.73;;;9.00;99.90;;;;;;5070444;28;20249;-60
2024/01/22 11:06:18;;;;;;;1.80;0.80;;;8.90;99.90;;;;;;5060702;28;20663;-54
2024/01/22 11:08:52;;;;;;;1.73;0.90;;;8.90;99.90;;;;;;5082498;28;20216;-53
2024/01/22 11:11:20;;;;;;;3.03;1.47;;;9.00;99.90;;;;;;5061609;28;20251;-53
2024/01/22 11:13:51;;;;;;;1.13;1.10;;;9.00;99.90;;;;;;5063098;28;20259;-53
2024/01/22 11:16:18;;;;;;;2.33;1.40;;;9.00;99.90;;;;;;5079143;28;20197;-53
2024/01/22 11:18:54;;;;;;;1.10;1.00;;;9.10;99.90;;;;;;5078911;28;20196;-53
2024/01/22 11:21:20;;;;;;;0.60;0.60;;;9.10;99.90;;;;;;5073016;28;20197;-53
2024/01/22 11:24:16;;;;;;;1.20;1.10;;;9.20;99.90;;;;;;5074040;28;20316;-59
2024/01/22 11:27:03;;;;;;;1.40;1.30;;;9.10;99.90;;;;;;5061716;28;20310;-55
2024/01/22 11:29:29;;;;;;;2.23;0.83;;;9.20;99.90;;;;;;5059654;28;20232;-62
2024/01/22 11:31:56;;;;;;;2.00;0.90;;;9.20;99.90;;;;;;5057088;28;20205;-63
2024/01/22 11:34:40;;;;;;;1.57;1.10;;;9.30;99.90;;;;;;5078861;28;20316;-53
2024/01/22 11:37:06;;;;;;;1.30;1.20;;;9.20;99.90;;;;;;5073115;28;20193;-52
2024/01/22 11:39:42;;;;;;;1.47;1.17;;;9.30;99.90;;;;;;5070027;28;20768;-61
2024/01/22 11:42:17;;;;;;;0.97;0.87;;;9.30;99.90;;;;;;5050880;28;20860;-51
2024/01/22 11:44:48;;;;;;;3.27;1.13;;;9.40;99.90;;;;;;5043018;28;20203;-57
2024/01/22 11:47:17;;;;;;;1.20;1.20;;;9.40;99.90;;;;;;5032921;28;20585;-54
2024/01/22 11:49:43;;;;;;;2.03;1.80;;;9.40;99.90;;;;;;5051167;28;20217;-54
2024/01/22 11:52:10;;;;;;;1.47;0.93;;;9.40;99.90;;;;;;5058390;28;20199;-53
2024/01/22 11:54:35;;;;;;;1.70;1.50;;;9.50;99.90;;;;;;5058914;28;20209;-54
2024/01/22 11:57:02;;;;;;;1.40;0.97;;;9.50;99.90;;;;;;5058979;28;20194;-53
2024/01/22 11:59:28;;;;;;;2.73;1.07;;;9.60;99.90;;;;;;5052098;28;20672;-51
2024/01/22 12:02:10;;;;;;;1.40;1.20;;;9.60;99.90;;;;;;5058353;28;20198;-59
2024/01/22 12:04:36;;;;;;;2.07;1.47;;;9.60;99.90;;;;;;5054751;28;20201;-62
2024/01/22 12:07:02;;;;;;;1.50;0.90;;;9.60;99.90;;;;;;5063076;28;20198;-53
2024/01/22 12:09:34;;;;;;;1.60;1.50;;;9.60;99.90;;;;;;5060474;28;20256;-54
2024/01/22 12:12:03;;;;;;;2.53;0.83;;;9.60;99.90;;;;;;5055386;28;20289;-53
2024/01/22 12:14:28;;;;;;;0.97;0.97;;;9.60;99.90;;;;;;5059709;28;20294;-53
2024/01/22 12:17:01;;;;;;;1.70;0.73;;;9.60;99.90;;;;;;5060511;28;20993;-53
2024/01/22 12:19:26;;;;;;;1.37;1.10;;;9.60;99.90;;;;;;5051299;28;20217;-58
2024/01/22 12:21:52;;;;;;;1.20;1.10;;;9.60;99.90;;;;;;5035743;28;20233;-59
2024/01/22 12:24:17;;;;;;;1.37;1.23;;;9.70;99.90;;;;;;5052051;28;20206;-58
2024/01/22 12:26:43;;;;;;;0.87;0.87;;;9.80;99.90;;;;;;5042866;28;20583;-57
2024/01/22 12:29:23;;;;;;;3.03;0.83;;;9.70;99.90;;;;;;5051836;28;20297;-55
2024/01/22 12:31:48;;;;;;;1.43;1.03;;;9.70;99.90;;;;;;5049130;28;20205;-55
2024/01/22 12:34:14;;;;;;;1.23;0.70;;;9.70;99.90;;;;;;5049842;28;20205;-57
2024/01/22 12:36:39;;;;;;;1.93;0.97;;;9.70;99.90;;;;;;5051279;28;20197;-58
2024/01/22 12:39:07;;;;;;;0.73;0.70;;;9.70;99.90;;;;;;5051461;28;20206;-56
2024/01/22 12:41:32;;;;;;;1.47;0.80;;;9.70;99.90;;;;;;5049541;28;20237;-56
2024/01/22 12:43:58;;;;;;;1.07;0.93;;;9.70;99.90;;;;;;5051302;28;20199;-56
2024/01/22 12:46:24;;;;;;;1.07;0.87;;;9.70;99.90;;;;;;5044674;28;20246;-57
2024/01/22 12:48:54;;;;;;;1.63;0.73;;;9.70;99.90;;;;;;5052622;28;20222;-59
2024/01/22 12:51:24;;;;;;;1.37;1.00;;;9.80;99.90;;;;;;5051447;28;20268;-58
2024/01/22 12:53:50;;;;;;;1.07;0.80;;;9.80;99.90;;;;;;5046730;28;20206;-54